createdAt,value
2023-08-11T00:01:11.359Z,3.53
2023-08-11T00:03:38.164Z,3.73
2023-08-11T00:06:08.471Z,4.07
2023-08-11T00:08:38.103Z,4.33
2023-08-11T00:11:05.182Z,4.10
2023-08-11T00:13:31.944Z,4.23
2023-08-11T00:15:59.921Z,4.30
2023-08-11T00:18:26.724Z,3.90
2023-08-11T00:20:53.435Z,3.83
2023-08-11T00:23:20.192Z,4.10
2023-08-11T00:25:46.922Z,4.10
2023-08-11T00:28:13.671Z,4.10
2023-08-11T00:30:40.425Z,4.13
2023-08-11T00:33:07.634Z,4.07
2023-08-11T00:35:35.754Z,4.40
2023-08-11T00:38:02.519Z,4.00
2023-08-11T00:40:30.283Z,4.13
2023-08-11T00:42:57.595Z,4.03
2023-08-11T00:45:24.643Z,4.33
2023-08-11T00:47:51.475Z,4.10
2023-08-11T00:50:18.752Z,4.23
2023-08-11T00:52:49.021Z,4.47
2023-08-11T00:55:16.308Z,4.47
2023-08-11T00:57:43.932Z,3.60
2023-08-11T01:00:14.529Z,4.13
2023-08-11T01:02:43.253Z,4.10
2023-08-11T01:05:11.095Z,4.10
2023-08-11T01:07:56.129Z,3.83
2023-08-11T01:10:29.940Z,4.13
2023-08-11T01:13:06.877Z,4.27
2023-08-11T01:15:41.662Z,4.10
2023-08-11T01:18:09.518Z,3.97
2023-08-11T01:20:36.681Z,3.93
2023-08-11T01:23:05.690Z,3.63
2023-08-11T01:25:33.419Z,4.37
2023-08-11T01:28:00.677Z,3.97
2023-08-11T01:30:28.433Z,4.10
2023-08-11T01:32:55.188Z,4.60
2023-08-11T01:35:38.202Z,4.27
2023-08-11T01:38:09.656Z,4.63
2023-08-11T01:40:36.710Z,4.10
2023-08-11T01:43:05.766Z,4.63
2023-08-11T01:45:32.518Z,4.30
2023-08-11T01:48:00.076Z,4.33
2023-08-11T01:50:29.067Z,4.57
2023-08-11T01:52:56.329Z,4.73
2023-08-11T01:55:25.888Z,4.40
2023-08-11T01:57:59.245Z,4.23
2023-08-11T02:00:27.560Z,5.07
2023-08-11T02:02:54.319Z,4.20
2023-08-11T02:05:22.458Z,4.40
2023-08-11T02:07:49.134Z,4.87
2023-08-11T02:10:15.850Z,4.70
2023-08-11T02:12:42.676Z,4.57
2023-08-11T02:15:11.811Z,4.53
2023-08-11T02:17:41.664Z,5.10
2023-08-11T02:20:22.878Z,4.63
2023-08-11T02:22:51.562Z,5.10
2023-08-11T02:25:18.462Z,4.63
2023-08-11T02:27:45.382Z,4.10
2023-08-11T02:30:13.086Z,4.50
2023-08-11T02:32:40.369Z,4.37
2023-08-11T02:35:07.338Z,3.90
2023-08-11T02:37:34.214Z,4.53
2023-08-11T02:40:00.978Z,4.47
2023-08-11T02:42:27.844Z,4.07
2023-08-11T02:44:54.707Z,3.87
2023-08-11T02:47:21.507Z,4.33
2023-08-11T02:49:48.830Z,4.10
2023-08-11T02:52:15.576Z,4.10
2023-08-11T02:54:42.397Z,3.70
2023-08-11T02:57:09.103Z,3.27
2023-08-11T02:59:35.933Z,3.60
2023-08-11T03:02:03.220Z,3.50
2023-08-11T03:04:30.082Z,3.97
2023-08-11T03:06:56.939Z,3.60
2023-08-11T03:09:23.776Z,2.87
2023-08-11T03:11:50.953Z,3.67
2023-08-11T03:14:18.237Z,4.20
2023-08-11T03:16:45.653Z,4.03
2023-08-11T03:19:12.422Z,3.37
2023-08-11T03:21:39.425Z,3.87
2023-08-11T03:24:06.450Z,3.10
2023-08-11T03:26:33.948Z,3.17
2023-08-11T03:29:02.453Z,3.37
2023-08-11T03:31:30.553Z,3.53
2023-08-11T03:33:58.118Z,3.60
2023-08-11T03:36:24.927Z,3.67
2023-08-11T03:38:52.436Z,2.87
2023-08-11T03:41:19.635Z,3.43
2023-08-11T03:43:46.516Z,3.33
2023-08-11T03:46:15.138Z,3.40
2023-08-11T03:48:43.374Z,3.10
2023-08-11T03:51:10.169Z,3.33
2023-08-11T03:53:37.631Z,3.00
2023-08-11T03:56:08.348Z,3.33
2023-08-11T03:58:36.435Z,4.00
2023-08-11T04:01:03.600Z,3.60
2023-08-11T04:03:32.266Z,3.10
2023-08-11T04:06:00.158Z,3.60
2023-08-11T04:08:27.446Z,3.40
2023-08-11T04:10:55.352Z,3.60
2023-08-11T04:13:22.327Z,3.80
2023-08-11T04:15:52.706Z,3.40
2023-08-11T04:18:19.888Z,3.40
2023-08-11T04:20:49.562Z,3.40
2023-08-11T04:23:16.383Z,3.47
2023-08-11T04:25:44.303Z,3.80
2023-08-11T04:28:11.256Z,3.80
2023-08-11T04:30:39.309Z,3.77
2023-08-11T04:33:07.094Z,3.23
2023-08-11T04:35:37.126Z,3.57
2023-08-11T04:38:05.783Z,3.53
2023-08-11T04:40:34.980Z,3.93
2023-08-11T04:43:01.902Z,3.43
2023-08-11T04:45:35.251Z,4.07
2023-08-11T04:48:02.483Z,3.70
2023-08-11T04:50:31.157Z,3.77
2023-08-11T04:52:58.613Z,3.37
2023-08-11T04:55:25.393Z,3.13
2023-08-11T04:57:52.928Z,3.33
2023-08-11T05:00:20.195Z,3.30
2023-08-11T05:02:47.095Z,3.23
2023-08-11T05:05:14.841Z,3.30
2023-08-11T05:07:41.581Z,3.20
2023-08-11T05:10:08.563Z,3.00
2023-08-11T05:12:35.369Z,3.27
2023-08-11T05:15:02.276Z,3.40
2023-08-11T05:17:29.076Z,3.27
2023-08-11T05:19:55.868Z,2.73
2023-08-11T05:22:23.166Z,3.30
2023-08-11T05:24:50.018Z,3.17
2023-08-11T05:27:16.804Z,3.10
2023-08-11T05:29:48.518Z,2.97
2023-08-11T05:32:15.538Z,3.30
2023-08-11T05:34:42.306Z,2.93
2023-08-11T05:37:09.336Z,3.07
2023-08-11T05:39:39.016Z,3.10
2023-08-11T05:42:07.378Z,2.90
2023-08-11T05:44:34.251Z,3.00
2023-08-11T05:47:01.229Z,3.20
2023-08-11T05:49:28.184Z,3.07
2023-08-11T05:51:55.040Z,2.93
2023-08-11T05:54:21.820Z,3.03
2023-08-11T05:56:48.565Z,3.27
2023-08-11T05:59:15.348Z,3.53
2023-08-11T06:01:42.087Z,3.10
2023-08-11T06:04:08.858Z,3.03
2023-08-11T06:06:35.850Z,3.10
2023-08-11T06:09:02.704Z,3.60
2023-08-11T06:11:29.432Z,3.30
2023-08-11T06:13:56.264Z,3.23
2023-08-11T06:16:23.196Z,3.17
2023-08-11T06:18:49.963Z,3.17
2023-08-11T06:21:18.403Z,3.60
2023-08-11T06:23:45.193Z,3.03
2023-08-11T06:26:12.234Z,4.90
2023-08-11T06:28:39.087Z,9.73
2023-08-11T06:31:05.940Z,4.47
2023-08-11T06:33:33.341Z,3.60
2023-08-11T06:36:00.192Z,3.37
2023-08-11T06:38:26.978Z,3.13
2023-08-11T06:40:53.741Z,3.27
2023-08-11T06:43:20.432Z,3.00
2023-08-11T06:45:48.123Z,3.07
2023-08-11T06:48:14.930Z,3.30
2023-08-11T06:50:41.728Z,2.80
2023-08-11T06:53:08.533Z,2.93
2023-08-11T06:55:35.290Z,3.10
2023-08-11T06:58:02.026Z,3.20
2023-08-11T07:00:28.834Z,3.00
2023-08-11T07:02:55.665Z,3.20
2023-08-11T07:05:22.432Z,3.40
2023-08-11T07:07:49.131Z,3.20
2023-08-11T07:10:15.876Z,2.97
2023-08-11T07:12:42.556Z,3.07
2023-08-11T07:15:09.594Z,3.03
2023-08-11T07:17:36.407Z,2.70
2023-08-11T07:20:03.325Z,3.17
2023-08-11T07:22:30.098Z,2.80
2023-08-11T07:24:56.835Z,2.77
2023-08-11T07:27:23.564Z,2.73
2023-08-11T07:29:50.244Z,3.20
2023-08-11T07:32:16.994Z,2.83
2023-08-11T07:34:43.773Z,2.70
2023-08-11T07:37:10.891Z,2.97
2023-08-11T07:39:37.967Z,2.90
2023-08-11T07:42:04.738Z,3.10
2023-08-11T07:44:32.086Z,3.13
2023-08-11T07:46:58.932Z,3.10
2023-08-11T07:49:25.877Z,2.37
2023-08-11T07:51:52.641Z,2.80
2023-08-11T07:54:19.453Z,2.80
2023-08-11T07:56:47.379Z,2.80
2023-08-11T07:59:14.491Z,2.87
2023-08-11T08:01:42.837Z,2.97
2023-08-11T08:04:11.686Z,2.70
2023-08-11T08:06:44.938Z,3.10
2023-08-11T08:09:12.965Z,2.80
2023-08-11T08:11:40.159Z,3.07
2023-08-11T08:14:06.949Z,2.80
2023-08-11T08:16:33.685Z,2.57
2023-08-11T08:19:00.374Z,3.27
2023-08-11T08:21:27.057Z,2.73
2023-08-11T08:23:53.816Z,2.77
2023-08-11T08:26:20.556Z,2.70
2023-08-11T08:28:47.255Z,2.90
2023-08-11T08:31:14.011Z,3.05
2023-08-11T08:33:40.744Z,2.80
2023-08-11T08:36:08.044Z,2.93
2023-08-11T08:38:34.813Z,2.63
2023-08-11T08:41:01.682Z,2.77
2023-08-11T08:43:28.660Z,2.90
2023-08-11T08:45:57.671Z,2.90
2023-08-11T08:48:27.737Z,2.70
2023-08-11T08:50:54.495Z,2.70
2023-08-11T08:53:21.921Z,3.00
2023-08-11T08:55:48.688Z,2.90
2023-08-11T08:58:17.031Z,3.03
2023-08-11T09:00:44.141Z,3.03
2023-08-11T09:03:12.058Z,2.80
2023-08-11T09:05:39.089Z,3.00
2023-08-11T09:08:06.476Z,2.53
2023-08-11T09:10:35.508Z,2.50
2023-08-11T09:13:02.262Z,2.80
2023-08-11T09:15:29.652Z,2.50
2023-08-11T09:17:56.522Z,2.47
2023-08-11T09:20:26.318Z,2.60
2023-08-11T09:22:53.181Z,2.53
2023-08-11T09:25:20.063Z,2.57
2023-08-11T09:27:50.103Z,2.50
2023-08-11T09:30:16.792Z,2.20
2023-08-11T09:32:47.326Z,2.63
2023-08-11T09:35:14.077Z,2.67
2023-08-11T09:37:44.636Z,2.60
2023-08-11T09:40:12.552Z,2.80
2023-08-11T09:42:39.556Z,2.90
2023-08-11T09:45:06.664Z,2.70
2023-08-11T09:47:33.357Z,2.53
2023-08-11T09:50:00.349Z,2.40
2023-08-11T09:52:27.913Z,2.70
2023-08-11T09:54:55.882Z,2.50
2023-08-11T09:57:23.262Z,2.50
2023-08-11T09:59:51.826Z,2.10
2023-08-11T10:02:21.674Z,2.13
2023-08-11T10:05:01.035Z,2.20
2023-08-11T10:07:35.049Z,2.00
2023-08-11T10:10:06.535Z,2.37
2023-08-11T10:12:33.992Z,2.17
2023-08-11T10:15:00.900Z,2.20
2023-08-11T10:17:27.760Z,2.30
2023-08-11T10:19:54.635Z,2.30
2023-08-11T10:22:21.352Z,2.57
2023-08-11T10:24:48.321Z,2.10
2023-08-11T10:27:15.495Z,2.53
2023-08-11T10:29:44.242Z,2.10
2023-08-11T10:32:11.446Z,2.60
2023-08-11T10:34:38.401Z,2.00
2023-08-11T10:37:07.495Z,2.60
2023-08-11T10:39:35.241Z,2.30
2023-08-11T10:42:03.440Z,2.17
2023-08-11T10:44:30.518Z,2.20
2023-08-11T10:47:03.195Z,2.50
2023-08-11T10:49:34.171Z,2.40
2023-08-11T10:52:01.741Z,1.90
2023-08-11T10:54:28.470Z,2.50
2023-08-11T10:56:55.415Z,2.50
2023-08-11T10:59:26.081Z,1.90
2023-08-11T11:01:54.752Z,2.10
2023-08-11T11:04:22.808Z,2.17
2023-08-11T11:06:51.945Z,2.30
2023-08-11T11:09:21.228Z,2.00
2023-08-11T11:11:51.679Z,2.30
2023-08-11T11:14:18.442Z,2.23
2023-08-11T11:16:45.277Z,2.00
2023-08-11T11:19:12.053Z,2.10
2023-08-11T11:21:40.987Z,2.30
2023-08-11T11:24:08.000Z,2.07
2023-08-11T11:26:34.798Z,2.53
2023-08-11T11:29:02.895Z,2.33
2023-08-11T11:31:30.736Z,2.53
2023-08-11T11:33:57.734Z,2.40
2023-08-11T11:36:24.629Z,2.50
2023-08-11T11:38:52.709Z,2.33
2023-08-11T11:41:20.123Z,2.13
2023-08-11T11:43:47.946Z,2.20
2023-08-11T11:46:18.305Z,2.20
2023-08-11T11:48:49.494Z,2.53
2023-08-11T11:51:17.610Z,2.50
2023-08-11T11:53:44.652Z,2.67
2023-08-11T11:56:18.209Z,2.17
2023-08-11T11:58:47.119Z,2.60
2023-08-11T12:01:16.041Z,2.53
2023-08-11T12:03:44.406Z,3.10
2023-08-11T12:06:12.081Z,2.47
2023-08-11T12:08:41.385Z,2.47
2023-08-11T12:11:10.228Z,2.63
2023-08-11T12:13:41.173Z,2.30
2023-08-11T12:16:09.046Z,2.40
2023-08-11T12:18:36.291Z,2.67
2023-08-11T12:21:03.229Z,2.50
2023-08-11T12:23:30.387Z,2.33
2023-08-11T12:25:57.186Z,2.40
2023-08-11T12:28:23.874Z,2.20
2023-08-11T12:30:50.706Z,2.40
2023-08-11T12:33:17.694Z,2.33
2023-08-11T12:35:44.882Z,2.30
2023-08-11T12:38:13.790Z,2.10
2023-08-11T12:40:41.932Z,2.10
2023-08-11T12:43:11.374Z,2.17
2023-08-11T12:45:41.155Z,2.53
2023-08-11T12:48:08.713Z,2.23
2023-08-11T12:50:37.173Z,2.10
2023-08-11T12:53:05.615Z,2.40
2023-08-11T12:55:32.622Z,2.30
2023-08-11T12:58:02.025Z,2.27
2023-08-11T13:00:29.061Z,2.30
2023-08-11T13:02:55.990Z,2.00
2023-08-11T13:05:23.276Z,2.40
2023-08-11T13:07:49.958Z,2.33
2023-08-11T13:10:17.200Z,2.57
2023-08-11T13:12:45.975Z,2.07
2023-08-11T13:15:12.792Z,2.10
2023-08-11T13:17:39.774Z,2.10
2023-08-11T13:20:10.757Z,2.03
2023-08-11T13:22:37.905Z,2.47
2023-08-11T13:25:04.981Z,2.40
2023-08-11T13:27:31.859Z,2.20
2023-08-11T13:29:58.628Z,2.23
2023-08-11T13:32:25.635Z,2.40
2023-08-11T13:34:52.446Z,2.27
2023-08-11T13:37:19.153Z,2.40
2023-08-11T13:39:45.958Z,2.00
2023-08-11T13:42:12.748Z,2.10
2023-08-11T13:44:39.659Z,2.13
2023-08-11T13:47:06.688Z,2.00
2023-08-11T13:49:33.408Z,2.07
2023-08-11T13:52:00.398Z,2.20
2023-08-11T13:54:28.836Z,2.07
2023-08-11T13:56:55.815Z,2.13
2023-08-11T13:59:22.612Z,2.50
2023-08-11T14:01:49.389Z,2.10
2023-08-11T14:04:16.178Z,2.40
2023-08-11T14:06:43.038Z,2.20
2023-08-11T14:09:09.828Z,2.00
2023-08-11T14:11:38.590Z,2.20
2023-08-11T14:14:05.429Z,2.13
2023-08-11T14:16:32.235Z,2.50
2023-08-11T14:18:58.961Z,2.17
2023-08-11T14:21:25.683Z,2.27
2023-08-11T14:23:52.430Z,2.13
2023-08-11T14:26:19.111Z,2.03
2023-08-11T14:28:45.881Z,2.00
2023-08-11T14:31:12.593Z,2.13
2023-08-11T14:33:42.414Z,2.27
2023-08-11T14:38:39.012Z,2.10
2023-08-11T14:41:05.898Z,1.97
2023-08-11T14:43:32.907Z,2.10
2023-08-11T14:45:59.719Z,2.60
2023-08-11T14:48:28.253Z,2.33
2023-08-11T14:50:55.653Z,2.10
2023-08-11T14:53:24.309Z,2.53
2023-08-11T14:55:51.653Z,2.50
2023-08-11T14:58:18.645Z,6.35
2023-08-11T15:00:45.534Z,7.00
2023-08-11T15:03:13.502Z,3.57
2023-08-11T15:05:40.994Z,2.90
2023-08-11T15:08:08.334Z,8.23
2023-08-11T15:10:35.581Z,3.67
2023-08-11T15:13:05.182Z,2.70
2023-08-11T15:15:32.934Z,3.70
2023-08-11T15:17:59.719Z,3.10
2023-08-11T15:20:26.772Z,3.23
2023-08-11T15:22:53.659Z,2.47
2023-08-11T15:25:20.379Z,2.10
2023-08-11T15:27:47.202Z,2.10
2023-08-11T15:30:14.658Z,2.47
2023-08-11T15:32:41.531Z,2.40
2023-08-11T15:35:09.367Z,2.13
2023-08-11T15:37:36.510Z,2.00
2023-08-11T15:40:05.138Z,2.33
2023-08-11T15:42:31.905Z,2.30
2023-08-11T15:44:58.695Z,2.10
2023-08-11T15:47:25.744Z,2.33
2023-08-11T15:49:52.535Z,2.20
2023-08-11T15:52:19.297Z,2.30
2023-08-11T15:54:46.078Z,2.03
2023-08-11T15:57:13.086Z,2.20
2023-08-11T15:59:39.930Z,2.27
2023-08-11T16:02:10.447Z,2.30
2023-08-11T16:04:38.081Z,2.07
2023-08-11T16:07:05.079Z,2.20
2023-08-11T16:09:31.846Z,2.10
2023-08-11T16:11:58.678Z,2.27
2023-08-11T16:14:27.884Z,2.30
2023-08-11T16:16:55.148Z,2.07
2023-08-11T16:19:21.949Z,2.73
2023-08-11T16:21:48.774Z,2.10
2023-08-11T16:24:15.743Z,2.57
2023-08-11T16:26:42.582Z,2.20
2023-08-11T16:29:09.332Z,2.33
2023-08-11T16:31:36.107Z,2.40
2023-08-11T16:34:04.410Z,2.00
2023-08-11T16:36:31.254Z,2.50
2023-08-11T16:38:58.024Z,2.47
2023-08-11T16:41:24.786Z,2.70
2023-08-11T16:43:53.222Z,2.20
2023-08-11T16:46:22.276Z,2.20
2023-08-11T16:48:49.856Z,2.50
2023-08-11T16:51:16.634Z,2.30
2023-08-11T16:53:43.541Z,2.67
2023-08-11T16:56:11.055Z,2.63
2023-08-11T16:58:37.881Z,2.77
2023-08-11T17:01:05.451Z,2.27
2023-08-11T17:03:32.568Z,2.63
2023-08-11T17:05:59.524Z,2.47
2023-08-11T17:08:26.387Z,2.53
2023-08-11T17:10:53.167Z,3.00
2023-08-11T17:13:19.888Z,2.70
2023-08-11T17:15:46.691Z,2.57
2023-08-11T17:18:13.774Z,2.50
2023-08-11T17:20:40.503Z,2.63
2023-08-11T17:23:07.388Z,2.10
2023-08-11T17:25:34.187Z,2.43
2023-08-11T17:28:00.867Z,2.33
2023-08-11T17:30:30.631Z,2.30
2023-08-11T17:32:57.812Z,2.47
2023-08-11T17:35:24.767Z,2.43
2023-08-11T17:37:51.538Z,2.10
2023-08-11T17:40:18.363Z,2.27
2023-08-11T17:42:45.113Z,2.30
2023-08-11T17:45:11.945Z,2.80
2023-08-11T17:47:39.912Z,2.13
2023-08-11T17:50:07.140Z,2.30
2023-08-11T17:52:34.843Z,2.40
2023-08-11T17:55:01.761Z,2.30
2023-08-11T17:57:28.497Z,2.30
2023-08-11T17:59:55.172Z,2.20
2023-08-11T18:02:21.953Z,2.23
2023-08-11T18:04:48.789Z,2.10
2023-08-11T18:07:15.519Z,2.50
2023-08-11T18:09:42.219Z,2.07
2023-08-11T18:12:09.457Z,2.20
2023-08-11T18:14:36.547Z,2.80
2023-08-11T18:17:04.046Z,3.20
2023-08-11T18:19:30.821Z,2.57
2023-08-11T18:21:57.514Z,2.60
2023-08-11T18:24:24.195Z,3.47
2023-08-11T18:26:51.069Z,4.63
2023-08-11T18:29:19.062Z,3.83
2023-08-11T18:31:45.903Z,3.67
2023-08-11T18:34:12.648Z,3.10
2023-08-11T18:36:39.467Z,3.73
2023-08-11T18:39:06.225Z,3.23
2023-08-11T18:41:32.907Z,3.10
2023-08-11T18:43:59.654Z,3.00
2023-08-11T18:46:26.404Z,3.13
2023-08-11T18:48:53.203Z,2.60
2023-08-11T18:51:19.886Z,2.77
2023-08-11T18:53:46.875Z,2.60
2023-08-11T18:56:13.739Z,2.83
2023-08-11T18:58:40.446Z,2.90
2023-08-11T19:01:07.484Z,3.23
2023-08-11T19:03:34.980Z,3.30
2023-08-11T19:06:02.133Z,2.80
2023-08-11T19:08:29.030Z,3.23
2023-08-11T19:10:56.028Z,3.40
2023-08-11T19:13:22.858Z,3.87
2023-08-11T19:15:50.174Z,3.13
2023-08-11T19:18:17.515Z,3.57
2023-08-11T19:20:46.271Z,3.70
2023-08-11T19:23:13.133Z,3.90
2023-08-11T19:25:39.892Z,4.30
2023-08-11T19:28:08.237Z,4.63
2023-08-11T19:30:35.283Z,5.17
2023-08-11T19:33:02.331Z,5.00
2023-08-11T19:35:29.128Z,5.03
2023-08-11T19:37:55.916Z,4.93
2023-08-11T19:40:22.982Z,4.83
2023-08-11T19:42:49.808Z,5.30
2023-08-11T19:45:16.607Z,5.17
2023-08-11T19:47:43.407Z,5.00
2023-08-11T19:50:10.350Z,5.07
2023-08-11T19:52:37.149Z,4.53
2023-08-11T19:55:04.050Z,5.27
2023-08-11T19:57:30.823Z,5.63
2023-08-11T19:59:57.582Z,4.70
2023-08-11T20:02:24.254Z,3.97
2023-08-11T20:04:50.983Z,3.77
2023-08-11T20:07:17.809Z,3.50
2023-08-11T20:09:44.522Z,3.30
2023-08-11T20:12:11.416Z,3.83
2023-08-11T20:14:38.160Z,4.20
2023-08-11T20:17:05.018Z,4.30
2023-08-11T20:19:31.830Z,4.10
2023-08-11T20:21:59.900Z,3.60
2023-08-11T20:24:26.792Z,3.80
2023-08-11T20:26:57.350Z,3.30
2023-08-11T20:29:24.791Z,3.87
2023-08-11T20:31:54.878Z,4.27
2023-08-11T20:34:22.521Z,4.17
2023-08-11T20:36:49.219Z,4.00
2023-08-11T20:39:17.004Z,3.87
2023-08-11T20:41:43.869Z,4.60
2023-08-11T20:44:11.072Z,4.50
2023-08-11T20:46:37.889Z,4.00
2023-08-11T20:49:04.611Z,4.60
2023-08-11T20:51:31.392Z,3.87
2023-08-11T20:53:58.110Z,4.13
2023-08-11T20:56:24.873Z,4.13
2023-08-11T20:58:51.984Z,4.00
2023-08-11T21:01:18.826Z,4.17
2023-08-11T21:03:45.722Z,4.50
2023-08-11T21:06:12.505Z,4.47
2023-08-11T21:08:44.387Z,3.80
2023-08-11T21:11:11.076Z,3.87
2023-08-11T21:13:38.067Z,3.77
2023-08-11T21:16:04.849Z,4.30
2023-08-11T21:18:31.620Z,4.00
2023-08-11T21:20:58.429Z,3.57
2023-08-11T21:23:25.127Z,4.00
2023-08-11T21:25:51.828Z,3.63
2023-08-11T21:28:18.523Z,3.93
2023-08-11T21:30:45.401Z,3.70
2023-08-11T21:33:12.302Z,3.40
2023-08-11T21:35:39.188Z,3.60
2023-08-11T21:38:06.561Z,3.93
2023-08-11T21:40:33.554Z,4.07
2023-08-11T21:43:00.350Z,4.90
2023-08-11T21:45:27.094Z,4.50
2023-08-11T21:47:53.900Z,3.67
2023-08-11T21:50:20.721Z,3.60
2023-08-11T21:52:47.443Z,3.90
2023-08-11T21:55:14.325Z,3.77
2023-08-11T21:57:41.031Z,3.50
2023-08-11T22:00:08.775Z,4.00
2023-08-11T22:02:35.652Z,5.10
2023-08-11T22:05:02.460Z,4.10
2023-08-11T22:07:29.416Z,4.23
2023-08-11T22:09:56.306Z,4.20
2023-08-11T22:12:23.198Z,3.87
2023-08-11T22:14:49.947Z,3.77
2023-08-11T22:17:16.767Z,3.73
2023-08-11T22:19:47.279Z,3.53
2023-08-11T22:22:18.310Z,3.93
2023-08-11T22:24:45.089Z,3.53
2023-08-11T22:27:12.453Z,3.63
2023-08-11T22:29:39.698Z,3.47
2023-08-11T22:32:06.520Z,3.50
2023-08-11T22:34:33.264Z,3.60
2023-08-11T22:36:59.954Z,3.23
2023-08-11T22:39:27.101Z,3.70
2023-08-11T22:41:53.838Z,3.53
2023-08-11T22:44:20.572Z,3.60
2023-08-11T22:46:47.288Z,3.87
2023-08-11T22:49:14.356Z,3.57
2023-08-11T22:51:41.089Z,3.80
2023-08-11T22:54:07.989Z,3.50
2023-08-11T22:56:34.770Z,3.70
2023-08-11T22:59:01.573Z,3.60
2023-08-11T23:01:28.379Z,3.50
2023-08-11T23:03:55.257Z,3.90
2023-08-11T23:06:22.083Z,4.03
2023-08-11T23:08:48.935Z,4.03
2023-08-11T23:11:15.709Z,3.30
2023-08-11T23:13:42.421Z,3.67
2023-08-11T23:16:09.246Z,3.27
2023-08-11T23:18:36.127Z,3.27
2023-08-11T23:21:03.560Z,3.10
2023-08-11T23:23:30.548Z,3.40
2023-08-11T23:25:57.269Z,3.60
2023-08-11T23:28:27.107Z,3.57
2023-08-11T23:30:53.810Z,3.60
2023-08-11T23:33:20.691Z,3.80
2023-08-11T23:35:47.529Z,3.47
2023-08-11T23:38:14.283Z,3.33
2023-08-11T23:40:40.953Z,3.90
2023-08-11T23:43:07.770Z,3.97
2023-08-11T23:45:35.486Z,4.00
2023-08-11T23:48:02.852Z,3.90
2023-08-11T23:50:30.077Z,4.17
2023-08-11T23:52:56.792Z,3.93
2023-08-11T23:55:25.831Z,4.23
2023-08-11T23:57:52.716Z,4.63
